Terminal Aerodrome Forecast
Issued by NWS

Home | Current Version | Previous Version | Graphics & Text | Print | Product List | Glossary On
Versions: 1 2 3 4 5 6 7 8 9 10 11 12 13 14 15 16 17
000
FTUS43 KBIS 231100
TAFMOT
TAF
KMOT 231130Z 2312/2412 11017G24KT P6SM -SHRA BKN080 OVC100
      TEMPO 2312/2314 11025G32KT 3SM -SHRA BKN050
     FM231600 12024G32KT P6SM VCSH BKN025 OVC040
     FM231900 12019G25KT P6SM -SHRA OVC018
     FM232100 17011KT P6SM -SHRA SCT015 OVC025
     FM232300 24011KT P6SM OVC025
     FM240400 23010KT P6SM SCT035 BKN090=

USA.gov is the U.S. government's official web portal to all federal, state and local government web resources and services.